Time;durP1;ratioP1;P1;durP2;ratioP2;P2;SDS_P1;SDS_P2;PMS_P1;PMS_P2;Temp;Humidity;BMP_temperature;BMP_pressure;BME280_temperature;BME280_humidity;BME280_pressure;Samples;Min_cycle;Max_cycle;Signal;HPM_P1;HPM_P2
2023/09/24 00:01:26;;;;;;;14.95;4.38;;;;;;;19.19;86.02;92938.16;5112325;27;20089;-76
2023/09/24 00:03:53;;;;;;;13.35;3.25;;;;;;;19.14;84.79;92931.16;5112075;27;20082;-77
2023/09/24 00:06:22;;;;;;;19.92;4.07;;;;;;;19.20;85.18;92943.09;5116007;27;20503;-77
2023/09/24 00:08:49;;;;;;;12.77;4.38;;;;;;;19.19;85.53;92938.94;5113507;27;20052;-76
2023/09/24 00:11:16;;;;;;;15.85;3.25;;;;;;;19.21;85.50;92942.06;5110650;27;20063;-76
2023/09/24 00:13:43;;;;;;;16.42;4.25;;;;;;;19.15;85.82;92931.94;5120078;27;20096;-76
2023/09/24 00:16:11;;;;;;;18.60;4.63;;;;;;;19.02;85.38;92912.47;5118832;27;20431;-76
2023/09/24 00:18:38;;;;;;;16.75;4.90;;;;;;;19.07;86.11;92931.47;5111364;27;20088;-76
2023/09/24 00:21:06;;;;;;;15.07;4.15;;;;;;;19.07;85.65;92930.69;5110670;27;20048;-76
2023/09/24 00:23:35;;;;;;;12.75;3.95;;;;;;;18.92;85.34;92911.47;5111499;27;20556;-76
2023/09/24 00:26:02;;;;;;;15.95;4.18;;;;;;;18.96;83.34;92937.75;5116588;27;20066;-76
2023/09/24 00:28:29;;;;;;;16.48;4.32;;;;;;;19.04;85.52;92939.81;5114217;27;20048;-77
2023/09/24 00:30:58;;;;;;;13.02;3.25;;;;;;;18.86;85.16;92919.56;5115215;27;20128;-76
2023/09/24 00:33:25;;;;;;;15.10;4.00;;;;;;;19.00;85.46;92933.56;5119715;27;20047;-76
2023/09/24 00:35:53;;;;;;;17.35;4.25;;;;;;;19.03;85.78;92946.06;5120064;27;20050;-76
2023/09/24 00:38:20;;;;;;;15.13;4.32;;;;;;;19.01;86.66;92942.13;5109994;27;20051;-76
2023/09/24 00:40:48;;;;;;;17.38;2.58;;;;;;;18.78;86.20;92918.31;5112965;27;20571;-76
2023/09/24 00:43:29;;;;;;;17.10;3.90;;;;;;;19.00;86.20;92940.59;5114406;27;20040;-76
2023/09/24 00:45:57;;;;;;;13.90;3.63;;;;;;;18.89;86.97;92919.81;5117456;27;20104;-76
2023/09/24 00:48:28;;;;;;;12.85;4.03;;;;;;;18.88;86.93;92927.91;5109938;27;20052;-76
2023/09/24 00:50:56;;;;;;;14.85;3.53;;;;;;;18.75;88.39;92914.41;5114440;27;20101;-76
2023/09/24 00:53:24;;;;;;;16.83;4.07;;;;;;;18.73;87.99;92916.50;5110122;27;20050;-76
2023/09/24 00:55:53;;;;;;;12.52;4.85;;;;;;;18.66;88.43;92906.38;5114911;27;20051;-76
2023/09/24 00:58:20;;;;;;;15.88;4.10;;;;;;;18.70;88.46;92917.81;5113790;27;20866;-75
2023/09/24 01:00:48;;;;;;;14.15;4.57;;;;;;;18.70;88.83;92911.84;5113371;27;20059;-75
2023/09/24 01:03:16;;;;;;;13.02;3.92;;;;;;;18.60;89.92;92901.50;5114255;27;20050;-75
2023/09/24 01:05:43;;;;;;;19.48;4.68;;;;;;;18.51;89.62;92896.84;5112745;27;20049;-76
2023/09/24 01:08:10;;;;;;;16.05;3.47;;;;;;;18.59;90.70;92916.31;5113296;27;20052;-76
2023/09/24 01:10:38;;;;;;;13.38;4.13;;;;;;;18.57;90.59;92913.22;5111447;27;20048;-76
2023/09/24 01:13:06;;;;;;;13.93;3.65;;;;;;;18.45;90.84;92897.91;5112249;27;20051;-76
2023/09/24 01:15:34;;;;;;;12.60;4.95;;;;;;;18.48;91.25;92902.59;5112366;27;20051;-76
2023/09/24 01:18:03;;;;;;;13.07;4.13;;;;;;;18.45;90.85;92897.13;5114325;27;20040;-76
2023/09/24 01:20:31;;;;;;;11.85;3.95;;;;;;;18.33;90.88;92887.78;5113124;27;20124;-78
2023/09/24 01:23:00;;;;;;;11.85;4.13;;;;;;;17.91;90.98;92827.34;5121417;27;20049;-78
2023/09/24 01:25:27;;;;;;;19.75;5.07;;;;;;;18.25;91.52;92880.56;5109239;27;20385;-79
2023/09/24 01:27:54;;;;;;;14.98;4.57;;;;;;;18.37;90.58;92893.28;5114179;27;20054;-79
2023/09/24 01:30:21;;;;;;;10.23;3.10;;;;;;;18.40;90.54;92883.13;5121160;27;20050;-79
2023/09/24 01:32:50;;;;;;;14.82;4.88;;;;;;;18.37;90.84;92886.22;5127463;27;20069;-80
2023/09/24 01:35:19;;;;;;;23.27;5.30;;;;;;;18.15;90.56;92845.00;5115814;27;20407;-80
2023/09/24 01:37:47;;;;;;;18.27;4.60;;;;;;;18.35;90.57;92875.34;5112977;27;20054;-82
2023/09/24 01:40:18;;;;;;;15.38;3.83;;;;;;;18.35;90.03;92879.75;5108506;27;20051;-78
2023/09/24 01:42:46;;;;;;;14.60;4.35;;;;;;;18.36;90.16;92866.47;5111554;27;20075;-78
2023/09/24 01:45:14;;;;;;;16.80;4.72;;;;;;;18.13;90.41;92840.06;5108727;27;20085;-79
2023/09/24 01:47:41;;;;;;;13.15;3.63;;;;;;;18.36;90.17;92873.50;5116202;27;20051;-79
2023/09/24 01:50:08;;;;;;;16.85;4.70;;;;;;;18.30;91.35;92875.34;5127633;27;20050;-79
2023/09/24 01:52:36;;;;;;;17.33;4.55;;;;;;;18.26;91.11;92867.31;5123881;27;20554;-79
2023/09/24 01:55:03;;;;;;;13.93;4.07;;;;;;;18.22;91.06;92861.06;5113740;27;20088;-79
2023/09/24 01:57:32;;;;;;;15.15;4.15;;;;;;;18.24;91.00;92868.63;5117400;27;20414;-79
2023/09/24 02:00:11;;;;;;;13.07;4.15;;;;;;;18.11;90.86;92862.16;5117293;27;20076;-78
2023/09/24 02:02:38;;;;;;;15.68;4.90;;;;;;;18.13;91.28;92878.25;5117966;27;20054;-78
2023/09/24 02:05:06;;;;;;;10.85;3.35;;;;;;;18.21;91.43;92882.13;5115906;27;20043;-78
2023/09/24 02:07:33;;;;;;;17.83;3.60;;;;;;;18.08;91.62;92857.47;5111472;28;20142;-78
2023/09/24 02:09:59;;;;;;;18.27;5.60;;;;;;;18.20;92.30;92883.97;5107714;28;20043;-76
2023/09/24 02:12:28;;;;;;;15.30;5.18;;;;;;;17.98;92.76;92853.06;5110288;27;20043;-76
2023/09/24 02:14:56;;;;;;;15.23;4.38;;;;;;;18.16;92.96;92882.94;5109111;27;20062;-77
2023/09/24 02:17:23;;;;;;;14.73;4.18;;;;;;;18.14;92.60;92885.00;5108574;28;20518;-77
2023/09/24 02:19:54;;;;;;;15.05;4.00;;;;;;;18.13;92.23;92889.44;5107317;28;20043;-76
2023/09/24 02:22:23;;;;;;;16.40;4.38;;;;;;;18.16;91.88;92888.13;5108277;28;20100;-77
2023/09/24 02:24:49;;;;;;;13.32;4.03;;;;;;;18.18;91.44;92885.28;5125353;28;20039;-76
2023/09/24 02:27:16;;;;;;;17.77;3.80;;;;;;;18.19;91.36;92882.38;5121206;28;20051;-76
2023/09/24 02:29:43;;;;;;;10.30;4.35;;;;;;;18.18;91.68;92883.44;5119910;28;20486;-76
2023/09/24 02:32:12;;;;;;;17.13;4.60;;;;;;;18.15;91.82;92887.34;5118771;28;20051;-76
2023/09/24 02:34:39;;;;;;;13.25;3.42;;;;;;;18.09;92.62;92890.25;5119611;27;20104;-76
2023/09/24 02:39:52;;;;;;;14.40;3.88;;;;;;;18.00;92.78;92887.34;5109883;28;20179;-76
2023/09/24 02:42:18;;;;;;;11.68;3.95;;;;;;;17.93;93.05;92879.84;5107815;28;20051;-77
2023/09/24 02:44:47;;;;;;;12.02;3.85;;;;;;;17.91;93.75;92879.31;5111242;28;20061;-76
2023/09/24 02:47:16;;;;;;;14.73;3.95;;;;;;;17.85;93.68;92886.34;5116716;27;20039;-76
2023/09/24 02:49:43;;;;;;;17.42;4.35;;;;;;;17.79;93.62;92891.81;5106598;28;20052;-76
2023/09/24 02:52:10;;;;;;;15.43;3.78;;;;;;;17.75;93.90;92899.34;5124612;28;20054;-77
2023/09/24 02:54:37;;;;;;;14.52;5.50;;;;;;;17.61;94.66;92883.53;5113650;28;20048;-76
2023/09/24 02:57:04;;;;;;;15.52;4.07;;;;;;;17.63;94.75;92892.59;5107519;28;20043;-76
2023/09/24 02:59:32;;;;;;;15.77;3.92;;;;;;;17.59;95.03;92893.41;5107740;28;20411;-76
2023/09/24 03:01:59;;;;;;;16.30;4.63;;;;;;;17.53;95.58;92890.00;5109573;28;20035;-77
2023/09/24 03:04:28;;;;;;;20.17;4.70;;;;;;;17.49;96.31;92888.97;5111022;28;20054;-76
2023/09/24 03:06:55;;;;;;;13.52;5.38;;;;;;;17.48;96.50;92893.41;5118295;27;20050;-76
2023/09/24 03:09:21;;;;;;;17.15;4.90;;;;;;;17.45;96.48;92893.91;5126513;28;20051;-76
2023/09/24 03:11:48;;;;;;;9.20;3.92;;;;;;;17.49;96.54;92904.56;5116780;27;20055;-76
2023/09/24 03:14:15;;;;;;;19.17;4.28;;;;;;;17.46;97.02;92889.50;5111419;27;20059;-77
2023/09/24 03:16:42;;;;;;;16.15;3.97;;;;;;;17.55;96.78;92892.34;5110969;27;20051;-77
2023/09/24 03:19:09;;;;;;;13.80;4.32;;;;;;;17.54;96.36;92894.16;5113210;27;20047;-76
2023/09/24 03:21:37;;;;;;;11.35;5.03;;;;;;;17.42;96.76;92870.28;5111222;27;20686;-77
2023/09/24 03:24:05;;;;;;;12.63;4.43;;;;;;;17.45;97.88;92877.56;5123314;27;20055;-77
2023/09/24 03:26:32;;;;;;;15.43;4.60;;;;;;;17.35;97.74;92878.31;5125929;27;20906;-77
2023/09/24 03:29:02;;;;;;;17.00;3.92;;;;;;;17.30;97.85;92892.09;5110043;28;20044;-77
2023/09/24 03:31:29;;;;;;;12.35;4.38;;;;;;;17.15;96.68;92890.28;5110730;27;20135;-78
2023/09/24 03:33:56;;;;;;;15.82;4.47;;;;;;;16.87;97.13;92857.75;5111547;27;20048;-77
2023/09/24 03:36:23;;;;;;;14.73;3.90;;;;;;;17.06;97.55;92904.78;5113795;27;20507;-76
2023/09/24 03:38:51;;;;;;;14.32;3.67;;;;;;;17.06;98.40;92904.78;5110872;27;20069;-77
2023/09/24 03:41:18;;;;;;;18.25;4.97;;;;;;;17.10;98.90;92903.25;5112243;27;20530;-77
2023/09/24 03:43:45;;;;;;;14.40;4.28;;;;;;;16.88;98.40;92870.47;5105558;27;20070;-76
2023/09/24 03:46:11;;;;;;;17.02;5.32;;;;;;;17.11;98.78;92909.97;5105029;27;20050;-76
2023/09/24 03:48:38;;;;;;;16.98;4.72;;;;;;;17.06;98.72;92881.44;5105499;27;20055;-77
2023/09/24 03:51:05;;;;;;;15.30;4.78;;;;;;;17.09;98.49;92886.13;5105207;27;20925;-78
2023/09/24 03:53:32;;;;;;;13.65;5.32;;;;;;;17.15;99.16;92894.66;5103466;27;20047;-77
2023/09/24 03:56:00;;;;;;;13.48;4.57;;;;;;;17.01;98.74;92877.00;5102840;27;20536;-77
2023/09/24 03:58:27;;;;;;;10.90;3.53;;;;;;;17.08;99.29;92898.31;5103713;27;20043;-77
2023/09/24 04:00:54;;;;;;;19.92;5.07;;;;;;;17.07;98.77;92888.16;5114171;27;20048;-77
2023/09/24 04:03:21;;;;;;;16.73;3.97;;;;;;;17.08;98.58;92902.72;5110711;27;20047;-77
2023/09/24 04:05:48;;;;;;;17.20;3.95;;;;;;;17.02;98.80;92895.91;5111560;27;20047;-77
2023/09/24 04:08:15;;;;;;;15.13;3.95;;;;;;;17.03;99.17;92915.69;5109544;27;20056;-76
2023/09/24 04:10:42;;;;;;;13.85;4.63;;;;;;;16.96;99.36;92916.66;5113222;27;20047;-76
2023/09/24 04:13:10;;;;;;;13.18;4.30;;;;;;;16.90;100.00;92916.94;5110184;27;20414;-76
2023/09/24 04:15:37;;;;;;;16.05;3.83;;;;;;;16.80;100.00;92926.22;5125674;27;20047;-76
2023/09/24 04:18:05;;;;;;;16.88;5.00;;;;;;;16.72;100.00;92944.91;5119690;27;20044;-77
2023/09/24 04:20:34;;;;;;;14.40;4.63;;;;;;;16.55;100.00;92943.28;5117673;27;20039;-78
2023/09/24 04:23:00;;;;;;;14.68;5.03;;;;;;;16.46;100.00;92949.97;5119745;27;20039;-79
2023/09/24 04:25:27;;;;;;;15.55;4.85;;;;;;;16.46;100.00;92941.41;5119657;27;20078;-79
2023/09/24 04:27:54;;;;;;;16.55;4.70;;;;;;;16.51;100.00;92944.00;5118027;27;20054;-77
2023/09/24 04:30:24;;;;;;;18.48;5.00;;;;;;;16.46;100.00;92939.59;5118205;27;20043;-79
2023/09/24 04:32:52;;;;;;;13.85;5.57;;;;;;;16.51;100.00;92956.97;5118217;27;20047;-78
2023/09/24 04:35:19;;;;;;;22.48;6.18;;;;;;;16.38;100.00;92950.47;5115976;27;20059;-78
2023/09/24 04:37:47;;;;;;;12.30;4.72;;;;;;;16.25;100.00;92965.41;5112541;27;20058;-79
2023/09/24 04:40:15;;;;;;;20.25;5.15;;;;;;;16.28;100.00;92970.09;5113296;27;20101;-77
2023/09/24 04:42:42;;;;;;;21.35;4.53;;;;;;;16.18;100.00;92928.56;5099363;27;20108;-76
2023/09/24 04:45:10;;;;;;;16.42;5.07;;;;;;;16.48;100.00;92954.91;5104476;27;20050;-77
2023/09/24 04:47:38;;;;;;;16.98;4.78;;;;;;;16.52;100.00;92954.13;5095379;28;20044;-77
2023/09/24 04:50:06;;;;;;;18.70;6.00;;;;;;;16.63;100.00;92967.16;5094408;27;20048;-77
2023/09/24 04:52:33;;;;;;;19.27;5.50;;;;;;;16.66;100.00;92967.41;5093494;27;20071;-77
2023/09/24 04:55:00;;;;;;;19.50;5.53;;;;;;;16.49;100.00;92939.09;5108097;27;20039;-77
2023/09/24 04:57:27;;;;;;;17.63;5.93;;;;;;;16.70;100.00;92960.69;5092547;28;20074;-79
2023/09/24 04:59:54;;;;;;;17.15;5.90;;;;;;;16.81;100.00;92966.69;5103843;27;20039;-78
2023/09/24 05:02:23;;;;;;;18.25;6.25;;;;;;;16.84;100.00;92960.22;5112731;27;20054;-77
2023/09/24 05:04:52;;;;;;;22.58;6.82;;;;;;;16.90;100.00;92968.81;5108797;27;20043;-79
2023/09/24 05:07:19;;;;;;;30.45;15.30;;;;;;;16.88;100.00;92955.28;5109247;27;20047;-76
2023/09/24 05:09:46;;;;;;;29.23;12.10;;;;;;;16.94;100.00;92967.28;5110006;27;20058;-77
2023/09/24 05:12:13;;;;;;;21.00;7.88;;;;;;;16.94;100.00;92967.28;5109334;27;20042;-77
2023/09/24 05:14:40;;;;;;;18.85;7.43;;;;;;;16.96;100.00;92968.56;5108263;27;20500;-78
2023/09/24 05:17:07;;;;;;;20.67;5.90;;;;;;;17.05;100.00;92963.69;5112351;27;20060;-78
2023/09/24 05:19:34;;;;;;;16.20;4.95;;;;;;;17.07;100.00;92951.25;5111253;27;20047;-80
2023/09/24 05:22:02;;;;;;;14.35;4.97;;;;;;;17.21;100.00;92964.50;5113742;27;20046;-79
2023/09/24 05:24:31;;;;;;;18.77;5.40;;;;;;;17.23;100.00;92953.88;5110870;27;20510;-77
2023/09/24 05:26:58;;;;;;;17.95;5.65;;;;;;;17.32;99.80;92959.34;5106428;27;20102;-78
2023/09/24 05:29:25;;;;;;;24.75;6.22;;;;;;;17.36;100.00;92965.59;5108749;27;20522;-78
2023/09/24 05:31:52;;;;;;;20.27;5.35;;;;;;;17.28;99.94;92961.66;5111751;27;20118;-78
2023/09/24 05:34:19;;;;;;;20.30;6.05;;;;;;;17.47;100.00;92971.56;5110705;27;20043;-79
2023/09/24 05:36:46;;;;;;;20.67;5.38;;;;;;;17.46;100.00;92975.19;5107847;27;20052;-79
2023/09/24 05:39:14;;;;;;;20.35;6.28;;;;;;;17.42;100.00;92979.34;5108766;27;20047;-77
2023/09/24 05:41:59;;;;;;;17.85;5.75;;;;;;;17.40;100.00;92976.22;5110443;27;20048;-76
2023/09/24 05:44:26;;;;;;;15.25;6.03;;;;;;;17.33;100.00;92968.69;5110326;27;20062;-77
2023/09/24 05:46:53;;;;;;;15.25;5.93;;;;;;;17.22;100.00;92954.91;5108131;27;20050;-76
2023/09/24 05:49:20;;;;;;;22.88;5.70;;;;;;;17.39;100.00;92974.66;5108991;27;20074;-77
2023/09/24 05:51:47;;;;;;;21.08;6.85;;;;;;;17.53;100.00;92974.94;5112608;27;20511;-77
2023/09/24 05:54:15;;;;;;;21.48;7.13;;;;;;;17.69;100.00;92968.69;5103781;27;20051;-77
2023/09/24 05:56:42;;;;;;;24.33;7.40;;;;;;;17.79;99.88;92960.16;5106406;27;20047;-76
2023/09/24 05:59:08;;;;;;;28.85;6.90;;;;;;;18.00;98.61;92960.09;5112290;27;20917;-76
2023/09/24 06:01:35;;;;;;;18.88;6.97;;;;;;;18.14;97.46;92940.38;5109234;27;20081;-76
2023/09/24 06:04:02;;;;;;;19.00;7.13;;;;;;;18.33;96.45;92960.59;5109506;27;20047;-77
2023/09/24 06:06:29;;;;;;;28.17;9.60;;;;;;;18.49;96.29;92958.75;5104236;27;20035;-76
2023/09/24 06:08:56;;;;;;;35.13;10.45;;;;;;;18.61;95.23;92958.44;5110169;27;20515;-76
2023/09/24 06:11:24;;;;;;;32.97;9.60;;;;;;;18.80;93.63;92960.47;5107194;27;20521;-76
2023/09/24 06:13:51;;;;;;;28.63;9.52;;;;;;;18.93;93.43;92948.69;5111375;27;20050;-76
2023/09/24 06:16:18;;;;;;;31.38;10.65;;;;;;;19.11;93.20;92964.78;5107948;27;20052;-76
2023/09/24 06:18:45;;;;;;;35.10;10.98;;;;;;;19.22;92.24;92955.84;5102108;27;20059;-76
2023/09/24 06:21:15;;;;;;;34.80;10.52;;;;;;;19.41;90.76;92952.63;5110895;27;20039;-76
2023/09/24 06:23:41;;;;;;;31.25;10.82;;;;;;;19.56;90.59;92956.94;5108251;27;20461;-76
2023/09/24 06:26:08;;;;;;;31.05;10.95;;;;;;;19.74;89.20;92947.69;5108278;28;20047;-76
2023/09/24 06:28:36;;;;;;;25.67;9.90;;;;;;;19.92;88.44;92948.84;5107800;28;20047;-76
2023/09/24 06:31:04;;;;;;;25.42;8.32;;;;;;;20.05;87.96;92944.06;5110274;28;20048;-77
2023/09/24 06:33:31;;;;;;;24.85;7.65;;;;;;;20.19;86.73;92949.41;5104500;28;20054;-76
2023/09/24 06:35:58;;;;;;;19.50;6.68;;;;;;;20.34;86.45;92945.84;5112941;28;20491;-76
2023/09/24 06:38:25;;;;;;;27.92;7.93;;;;;;;20.44;86.37;92935.31;5105250;28;20054;-76
2023/09/24 06:40:59;;;;;;;22.15;7.18;;;;;;;20.59;84.79;92936.97;5108187;28;20044;-76
2023/09/24 06:43:26;;;;;;;21.52;6.32;;;;;;;20.78;83.58;92950.06;5101008;28;20840;-76
2023/09/24 06:45:55;;;;;;;26.40;6.97;;;;;;;20.82;82.33;92926.78;5105146;28;20043;-76
2023/09/24 06:48:22;;;;;;;25.75;7.07;;;;;;;21.18;81.35;92947.25;5110031;27;20508;-76
2023/09/24 06:50:49;;;;;;;24.08;7.50;;;;;;;21.34;79.57;92953.03;5107061;27;20039;-76
2023/09/24 06:53:16;;;;;;;20.45;7.05;;;;;;;21.48;79.68;92960.91;5109079;27;20044;-76
2023/09/24 06:55:43;;;;;;;26.48;7.85;;;;;;;21.65;79.30;92956.25;5111568;27;20040;-76
2023/09/24 06:58:10;;;;;;;26.40;7.53;;;;;;;21.82;80.12;92966.22;5116617;27;20043;-76
2023/09/24 07:00:37;;;;;;;22.02;7.30;;;;;;;21.96;79.27;92967.03;5112203;27;20048;-76
2023/09/24 07:03:06;;;;;;;24.23;7.85;;;;;;;22.13;77.48;92961.25;5115672;27;20055;-76
2023/09/24 07:05:33;;;;;;;22.10;6.68;;;;;;;22.31;77.65;92971.16;5111119;27;20124;-77
2023/09/24 07:07:59;;;;;;;20.90;8.88;;;;;;;22.42;79.07;92972.53;5103236;27;20404;-75
2023/09/24 07:10:26;;;;;;;17.77;7.88;;;;;;;22.36;77.78;92966.59;5099851;27;20048;-76
2023/09/24 07:12:53;;;;;;;25.38;7.22;;;;;;;22.45;78.66;92973.78;5102902;27;20051;-76
2023/09/24 07:15:20;;;;;;;22.65;6.93;;;;;;;22.63;78.15;92972.94;5105118;27;20100;-76
2023/09/24 07:17:47;;;;;;;15.52;6.80;;;;;;;22.66;74.63;92975.00;5107125;27;20039;-76
2023/09/24 07:20:16;;;;;;;17.33;5.70;;;;;;;22.72;75.21;92969.66;5105783;27;20050;-76
2023/09/24 07:22:42;;;;;;;20.63;6.43;;;;;;;22.74;75.79;92980.63;5104708;27;20051;-77
2023/09/24 07:25:11;;;;;;;25.08;7.78;;;;;;;22.82;76.79;92978.09;5100429;27;20042;-76
2023/09/24 07:27:37;;;;;;;25.98;8.90;;;;;;;22.80;75.80;92979.44;5101719;27;20052;-76
2023/09/24 07:30:05;;;;;;;23.83;7.60;;;;;;;22.86;74.83;92964.41;5097472;27;20059;-76
2023/09/24 07:32:33;;;;;;;20.15;6.63;;;;;;;22.82;76.53;92957.13;5100811;27;20071;-76
2023/09/24 07:35:00;;;;;;;19.42;7.07;;;;;;;23.17;74.20;92972.41;5102884;27;20080;-76
2023/09/24 07:37:28;;;;;;;21.33;8.52;;;;;;;23.39;73.27;92978.03;5094723;27;20500;-76
2023/09/24 07:39:55;;;;;;;22.90;7.88;;;;;;;23.45;74.22;92963.72;5091677;27;20920;-76
2023/09/24 07:42:22;;;;;;;27.35;7.55;;;;;;;23.74;73.95;92968.56;5093485;27;20051;-76
2023/09/24 07:44:48;;;;;;;21.70;7.25;;;;;;;23.93;74.23;92956.34;5093189;27;20048;-77
2023/09/24 07:47:15;;;;;;;28.63;7.00;;;;;;;24.21;71.84;92964.09;5093019;27;20048;-76
2023/09/24 07:49:43;;;;;;;21.42;7.32;;;;;;;24.15;70.91;92963.44;5095180;27;20047;-76
2023/09/24 07:52:12;;;;;;;22.08;7.15;;;;;;;23.80;69.78;92955.34;5101511;27;20043;-77
2023/09/24 07:54:40;;;;;;;27.30;8.00;;;;;;;24.01;71.20;92960.88;5103324;27;20048;-76
2023/09/24 07:57:07;;;;;;;24.90;7.05;;;;;;;24.08;70.61;92961.25;5111464;27;20054;-76
2023/09/24 07:59:33;;;;;;;30.63;8.23;;;;;;;24.31;72.24;92947.31;5100186;27;20047;-76
2023/09/24 08:02:01;;;;;;;33.35;8.07;;;;;;;24.45;69.54;92953.25;5103770;27;20048;-76
2023/09/24 08:04:28;;;;;;;27.85;8.95;;;;;;;24.59;70.50;92933.97;5108785;27;20427;-76
2023/09/24 08:06:55;;;;;;;29.50;8.15;;;;;;;24.73;68.33;92950.41;5105679;27;20070;-76
2023/09/24 08:09:22;;;;;;;32.05;10.07;;;;;;;24.88;68.92;92937.94;5097893;27;20090;-76
2023/09/24 08:11:50;;;;;;;30.80;9.10;;;;;;;25.05;68.34;92945.09;5097789;27;20050;-76
2023/09/24 08:14:17;;;;;;;23.95;7.78;;;;;;;25.16;67.89;92951.59;5100032;27;20423;-76
2023/09/24 08:16:44;;;;;;;32.33;8.13;;;;;;;25.30;67.46;92948.81;5095064;27;20051;-76
2023/09/24 08:19:11;;;;;;;24.33;6.05;;;;;;;25.45;66.96;92947.56;5103962;27;20131;-76
2023/09/24 08:21:38;;;;;;;25.45;7.38;;;;;;;25.39;65.55;92940.94;5111823;27;20039;-76
2023/09/24 08:24:05;;;;;;;23.38;6.45;;;;;;;25.48;64.59;92954.84;5102365;27;20136;-76
2023/09/24 08:26:33;;;;;;;20.65;7.68;;;;;;;25.33;67.13;92947.41;5112474;27;20054;-77
2023/09/24 08:29:05;;;;;;;20.02;7.03;;;;;;;25.16;67.30;92950.81;5108462;27;20067;-76
2023/09/24 08:31:32;;;;;;;15.23;5.30;;;;;;;24.91;68.81;92948.59;5110818;27;20040;-77
2023/09/24 08:33:59;;;;;;;12.07;6.03;;;;;;;24.54;69.97;92946.16;5113197;27;20047;-76
2023/09/24 08:36:26;;;;;;;19.10;6.88;;;;;;;24.50;71.37;92934.72;5111613;27;20100;-77
2023/09/24 08:38:53;;;;;;;16.00;6.30;;;;;;;24.37;71.88;92940.84;5105559;27;20062;-77
2023/09/24 08:41:20;;;;;;;15.85;5.85;;;;;;;24.46;71.96;92941.66;5112813;27;20625;-77
2023/09/24 08:43:47;;;;;;;16.90;5.13;;;;;;;24.41;72.06;92945.22;5099127;27;20055;-77
2023/09/24 08:46:17;;;;;;;14.27;4.93;;;;;;;24.47;72.61;92952.91;5097088;27;20766;-77
2023/09/24 08:48:44;;;;;;;10.00;4.32;;;;;;;24.68;72.30;92951.28;5097770;27;20047;-76
2023/09/24 08:51:11;;;;;;;11.77;4.60;;;;;;;24.76;71.17;92951.66;5098142;27;20602;-76
2023/09/24 08:53:39;;;;;;;14.70;4.50;;;;;;;25.01;70.78;92952.03;5103435;27;20705;-76
2023/09/24 08:56:06;;;;;;;11.05;4.43;;;;;;;25.08;69.64;92947.06;5099971;27;20044;-76
2023/09/24 08:58:33;;;;;;;14.68;5.75;;;;;;;24.92;69.73;92950.16;5097678;27;20044;-76
2023/09/24 09:01:01;;;;;;;14.60;5.05;;;;;;;25.07;69.00;92945.53;5103022;27;20036;-77
2023/09/24 09:03:32;;;;;;;16.15;5.45;;;;;;;25.15;70.36;92936.91;5098274;27;20043;-77
2023/09/24 09:06:00;;;;;;;14.63;5.18;;;;;;;25.66;69.87;92951.44;5100636;27;20047;-76
2023/09/24 09:08:27;;;;;;;18.33;5.35;;;;;;;25.47;68.23;92957.78;5103867;27;20039;-76
2023/09/24 09:10:53;;;;;;;12.05;4.15;;;;;;;25.62;68.06;92953.94;5102385;27;20056;-77
2023/09/24 09:13:21;;;;;;;15.13;4.78;;;;;;;25.56;68.69;92948.06;5112726;27;20054;-77
2023/09/24 09:16:02;;;;;;;12.98;4.63;;;;;;;25.78;67.91;92953.47;5105996;27;20051;-77
2023/09/24 09:18:31;;;;;;;14.13;5.15;;;;;;;25.92;68.00;92950.66;5103368;27;20900;-77
2023/09/24 09:20:59;;;;;;;11.10;4.35;;;;;;;26.10;66.45;92954.03;5103132;27;20044;-76
2023/09/24 09:23:33;;;;;;;15.88;4.75;;;;;;;26.01;65.55;92961.94;5104837;27;20507;-76
2023/09/24 09:26:00;;;;;;;13.88;4.68;;;;;;;25.95;65.57;92963.16;5104307;27;20126;-76
2023/09/24 09:28:28;;;;;;;14.57;5.10;;;;;;;25.90;65.86;92950.97;5104360;27;20043;-77
2023/09/24 09:31:00;;;;;;;16.75;4.65;;;;;;;25.93;64.62;92958.25;5103461;27;20052;-76
2023/09/24 09:33:28;;;;;;;13.57;4.65;;;;;;;25.97;65.37;92932.84;5103929;27;20055;-77
2023/09/24 09:35:57;;;;;;;20.33;5.72;;;;;;;26.31;65.14;92940.19;5105734;27;20572;-76
2023/09/24 09:38:25;;;;;;;15.07;5.30;;;;;;;26.35;63.81;92951.66;5108709;27;20427;-76
2023/09/24 09:40:54;;;;;;;13.50;4.85;;;;;;;26.24;64.16;92952.00;5109163;27;20467;-76
2023/09/24 09:43:23;;;;;;;14.27;4.85;;;;;;;26.41;63.26;92953.03;5111926;27;20050;-78
2023/09/24 09:45:51;;;;;;;12.82;4.63;;;;;;;26.35;64.77;92962.19;5107827;27;20047;-77
2023/09/24 09:48:29;;;;;;;14.57;4.57;;;;;;;26.33;62.60;92953.84;5112037;27;20047;-76
2023/09/24 09:51:02;;;;;;;9.88;4.00;;;;;;;26.52;64.99;92950.81;5108923;27;20113;-76
2023/09/24 09:53:33;;;;;;;17.85;5.03;;;;;;;26.71;63.03;92955.69;5106015;27;20055;-76
2023/09/24 09:56:02;;;;;;;15.30;5.38;;;;;;;26.65;61.58;92959.56;5104207;27;20055;-77
2023/09/24 09:58:31;;;;;;;16.08;4.93;;;;;;;26.65;61.95;92959.56;5092058;27;20067;-76
2023/09/24 10:00:59;;;;;;;18.33;5.05;;;;;;;26.87;62.28;92957.75;5109060;27;20043;-76
2023/09/24 10:03:27;;;;;;;17.10;5.45;;;;;;;27.12;62.79;92958.72;5104432;27;20097;-76
2023/09/24 10:05:56;;;;;;;17.35;5.15;;;;;;;27.35;58.90;92961.06;5107689;27;20043;-76
2023/09/24 10:08:38;;;;;;;15.25;5.03;;;;;;;27.54;55.06;92963.22;5106900;27;20379;-76
2023/09/24 10:11:06;;;;;;;15.45;4.45;;;;;;;27.71;55.51;92961.56;5109027;27;20047;-76
2023/09/24 10:13:49;;;;;;;23.30;5.13;;;;;;;27.84;56.47;92951.84;5109032;27;20051;-76
2023/09/24 10:16:35;;;;;;;13.48;3.83;;;;;;;27.86;52.20;92941.75;5112458;27;20054;-77
2023/09/24 10:19:04;;;;;;;16.27;4.20;;;;;;;27.99;54.33;92937.25;5103873;27;20044;-76
2023/09/24 10:21:33;;;;;;;10.25;3.75;;;;;;;28.10;56.09;92942.91;5109580;27;20047;-76
2023/09/24 10:24:48;;;;;;;13.85;4.45;;;;;;;28.21;55.88;92951.94;5106281;27;20043;-76
2023/09/24 10:27:16;;;;;;;14.93;4.45;;;;;;;28.24;53.84;92950.53;5100511;28;20044;-76
2023/09/24 10:30:09;;;;;;;12.63;3.97;;;;;;;28.25;52.40;92952.88;5099845;28;20158;-76
2023/09/24 10:32:52;;;;;;;13.43;4.38;;;;;;;28.20;52.69;92941.69;5099134;28;20100;-76
2023/09/24 10:35:20;;;;;;;15.05;5.05;;;;;;;28.07;54.31;92940.91;5101763;28;20302;-76
2023/09/24 10:38:00;;;;;;;11.30;4.43;;;;;;;28.06;54.25;92924.31;5103958;28;20500;-76
2023/09/24 10:40:28;;;;;;;15.00;4.50;;;;;;;28.27;56.01;92941.94;5103291;28;20137;-76
2023/09/24 10:43:11;;;;;;;15.00;4.93;;;;;;;28.15;52.37;92938.16;5098397;28;20055;-76
2023/09/24 10:45:38;;;;;;;18.05;4.25;;;;;;;27.83;54.14;92900.94;5099430;28;20125;-76
2023/09/24 10:48:05;;;;;;;15.57;5.47;;;;;;;27.95;52.13;92931.84;5100276;28;20046;-76
2023/09/24 10:50:32;;;;;;;19.85;4.70;;;;;;;27.81;51.06;92926.88;5100351;28;20054;-76
2023/09/24 10:53:02;;;;;;;12.75;3.83;;;;;;;27.82;53.03;92920.50;5099894;28;20040;-76
2023/09/24 10:55:38;;;;;;;20.75;5.75;;;;;;;27.97;54.97;92932.31;5097388;28;20058;-76
2023/09/24 10:58:06;;;;;;;12.18;4.03;;;;;;;28.13;55.93;92929.03;5098502;28;20408;-76
2023/09/24 11:00:35;;;;;;;13.98;4.57;;;;;;;28.21;55.21;92932.69;5101720;28;20040;-76
2023/09/24 11:03:04;;;;;;;14.13;4.65;;;;;;;28.26;55.85;92927.22;5097546;28;20098;-76
2023/09/24 11:05:35;;;;;;;13.60;4.10;;;;;;;28.43;55.01;92926.25;5098757;28;20044;-76
2023/09/24 11:08:02;;;;;;;15.00;4.57;;;;;;;28.57;55.41;92941.78;5101253;28;20065;-76
2023/09/24 11:10:29;;;;;;;10.10;3.83;;;;;;;28.65;54.94;92932.19;5102679;28;20047;-76
2023/09/24 11:13:00;;;;;;;13.15;3.60;;;;;;;28.70;53.17;92941.78;5098038;28;20059;-76
2023/09/24 11:15:31;;;;;;;12.80;4.32;;;;;;;28.52;53.54;92915.56;5105108;28;20048;-76
2023/09/24 11:17:58;;;;;;;17.23;4.43;;;;;;;28.75;53.48;92944.19;5097863;28;20052;-76
2023/09/24 11:20:28;;;;;;;17.13;6.18;;;;;;;28.52;54.53;92947.28;5103124;28;20051;-77
2023/09/24 11:22:58;;;;;;;19.30;4.53;;;;;;;28.41;54.64;92954.84;5096172;28;20056;-77
2023/09/24 11:25:25;;;;;;;18.48;5.15;;;;;;;28.30;55.32;92953.72;5105470;28;20052;-77
2023/09/24 11:27:52;;;;;;;21.50;5.68;;;;;;;28.28;55.35;92946.91;5108798;28;20070;-76
2023/09/24 11:30:22;;;;;;;20.52;6.03;;;;;;;28.24;55.56;92951.31;5103293;28;20052;-76
2023/09/24 11:32:51;;;;;;;23.40;5.25;;;;;;;28.28;55.91;92944.28;5104247;27;20040;-76